ENNA METAR and TAF weather

Enter ICAO airport designator
Station Type Date Time Source
ENNA METAR 2021/09/23 23:20 UTC NOAA

ENNA 232320Z AUTO 18016KT 9999 OVC022/// 06/01 Q0999 RMK WIND 1800FT 18031KT


Station Type Date Time Source
ENNA Decoded METAR 2021/09/23 23:20 UTC NOAA

Banak, Norway (ENNA) 70-04N 024-59E 8M
Sep 23, 2021 - 07:20 PM EDT / 2021.09.23 2320 UTC
Wind: from the S (180 degrees) at 18 MPH (16 KT):0
Visibility: greater than 7 mile(s):0
Sky conditions: overcast
Temperature: 42 F (6 C)
Dew Point: 33 F (1 C)
Relative Humidity: 70%
Pressure (altimeter): 29.50 in. Hg (0999 hPa)
ob: ENNA 232320Z AUTO 18016KT 9999 OVC022/// 06/01 Q0999 RMK WIND 1800FT 18031KT
cycle: 23

Station Type Date Time Source
ENNA TAF 2021/09/23 18:57 UTC NOAA

TAF TAF ENNA 231700Z 2318/2418 17018KT 9999 FEW015 BKN025 PROB40
TEMPO 2318/2412 18018G28KT
TEMPO 2403/2415 BKN012

Example: see airport list